createdAt,value
2019-01-26T00:01:02.195Z,1002.69
2019-01-26T00:02:12.137Z,1002.64
2019-01-26T00:03:21.831Z,1002.64
2019-01-26T00:04:31.767Z,1002.57
2019-01-26T00:05:41.462Z,1002.68
2019-01-26T00:06:50.892Z,1002.62
2019-01-26T00:08:00.571Z,1002.63
2019-01-26T00:09:10.523Z,1002.65
2019-01-26T00:10:19.947Z,1002.66
2019-01-26T00:11:29.894Z,1002.71
2019-01-26T00:12:39.084Z,1002.69
2019-01-26T00:13:49.021Z,1002.66
2019-01-26T00:14:58.953Z,1002.59
2019-01-26T00:16:08.889Z,1002.52
2019-01-26T00:17:23.945Z,1002.44
2019-01-26T00:18:33.635Z,1002.44
2019-01-26T00:19:43.561Z,1002.37
2019-01-26T00:20:53.254Z,1002.29
2019-01-26T00:22:03.192Z,1002.27
2019-01-26T00:23:12.872Z,1002.19
2019-01-26T00:24:22.546Z,1002.2
2019-01-26T00:25:32.489Z,1002.12
2019-01-26T00:26:42.157Z,1002.13
2019-01-26T00:27:52.100Z,1002.13
2019-01-26T00:29:02.030Z,1002.05
2019-01-26T00:30:11.963Z,1002.08
2019-01-26T00:31:21.892Z,1002.02
2019-01-26T00:32:31.859Z,1001.94
2019-01-26T00:33:43.357Z,1001.82
2019-01-26T00:34:53.391Z,1001.77
2019-01-26T00:36:03.066Z,1001.8
2019-01-26T00:37:12.804Z,1001.82
2019-01-26T00:38:22.734Z,1001.72
2019-01-26T00:39:32.667Z,1001.74
2019-01-26T00:40:42.805Z,1001.69
2019-01-26T00:41:52.740Z,1001.68
2019-01-26T00:43:02.692Z,1001.66
2019-01-26T00:44:12.640Z,1001.71
2019-01-26T00:45:22.317Z,1001.65
2019-01-26T00:46:32.280Z,1001.62
2019-01-26T00:47:41.958Z,1001.53
2019-01-26T00:48:51.643Z,1001.46
2019-01-26T00:50:01.575Z,1001.36
2019-01-26T00:51:11.257Z,1001.42
2019-01-26T00:52:24.894Z,1001.4
2019-01-26T00:53:34.836Z,1001.35
2019-01-26T00:54:44.759Z,1001.33
2019-01-26T00:55:54.723Z,1001.28
2019-01-26T00:57:04.151Z,1001.21
2019-01-26T00:58:13.849Z,1001.29
2019-01-26T00:59:27.539Z,1001.2
2019-01-26T01:00:37.510Z,1001.18
2019-01-26T01:01:47.448Z,1001.15
2019-01-26T01:02:57.141Z,1001.16
2019-01-26T01:04:06.589Z,1001.19
2019-01-26T01:05:16.287Z,1001.18
2019-01-26T01:06:26.222Z,1001.18
2019-01-26T01:07:36.182Z,1001.2
2019-01-26T01:08:46.398Z,1001.16
2019-01-26T01:09:56.291Z,1001.13
2019-01-26T01:11:06.229Z,1001.06
2019-01-26T01:12:15.910Z,1001.07
2019-01-26T01:13:25.597Z,1001.04
2019-01-26T01:14:35.529Z,1001.07
2019-01-26T01:15:45.211Z,1001.08
2019-01-26T01:16:55.152Z,1001.05
2019-01-26T01:18:05.074Z,1001.05
2019-01-26T01:19:14.761Z,1000.98
2019-01-26T01:20:24.688Z,1000.96
2019-01-26T01:21:34.370Z,1000.93
2019-01-26T01:22:43.888Z,1001.02
2019-01-26T01:23:53.829Z,1001.04
2019-01-26T01:25:03.776Z,1001.03
2019-01-26T01:26:13.726Z,1001.01
2019-01-26T01:27:24.241Z,1000.95
2019-01-26T01:28:34.175Z,1000.94
2019-01-26T01:29:44.109Z,1000.94
2019-01-26T01:30:54.053Z,1000.89
2019-01-26T01:32:03.988Z,1000.87
2019-01-26T01:33:13.928Z,1000.88
2019-01-26T01:34:23.623Z,1000.81
2019-01-26T01:35:33.303Z,1000.78
2019-01-26T01:36:43.252Z,1000.77
2019-01-26T01:37:53.184Z,1000.75
2019-01-26T01:39:03.117Z,1000.7
2019-01-26T01:40:13.050Z,1000.72
2019-01-26T01:41:22.971Z,1000.72
2019-01-26T01:42:32.901Z,1000.62
2019-01-26T01:43:42.839Z,1000.64
2019-01-26T01:44:52.515Z,1000.59
2019-01-26T01:46:02.448Z,1000.52
2019-01-26T01:47:11.883Z,1000.52
2019-01-26T01:48:21.821Z,1000.56
2019-01-26T01:49:31.778Z,1000.53
2019-01-26T01:50:41.709Z,1000.44
2019-01-26T01:51:51.631Z,1000.43
2019-01-26T01:53:01.318Z,1000.4
2019-01-26T01:54:10.999Z,1000.33
2019-01-26T01:55:20.946Z,1000.29
2019-01-26T01:56:30.876Z,1000.27
2019-01-26T01:57:40.817Z,1000.18
2019-01-26T01:58:50.493Z,1000.14
2019-01-26T02:00:00.422Z,1000.11
2019-01-26T02:01:10.105Z,1000.02
2019-01-26T02:02:20.237Z,1000.07
2019-01-26T02:03:29.892Z,1000.06
2019-01-26T02:04:39.821Z,1000.06
2019-01-26T02:05:49.798Z,1000.05
2019-01-26T02:06:59.730Z,1000.02
2019-01-26T02:08:09.653Z,1000.01
2019-01-26T02:09:19.595Z,1000
2019-01-26T02:10:29.521Z,999.99
2019-01-26T02:11:38.950Z,1000
2019-01-26T02:12:48.887Z,999.96
2019-01-26T02:13:58.805Z,999.96
2019-01-26T02:15:08.237Z,999.91
2019-01-26T02:16:18.177Z,999.93
2019-01-26T02:17:27.869Z,999.89
2019-01-26T02:18:37.815Z,999.94
2019-01-26T02:19:47.755Z,999.91
2019-01-26T02:20:57.441Z,999.88
2019-01-26T02:22:07.868Z,999.8
2019-01-26T02:23:17.797Z,999.8
2019-01-26T02:24:27.848Z,999.77
2019-01-26T02:25:37.803Z,999.75
2019-01-26T02:26:47.754Z,999.7
2019-01-26T02:27:57.435Z,999.71
2019-01-26T02:29:07.365Z,999.64
2019-01-26T02:30:17.293Z,999.58
2019-01-26T02:31:27.728Z,999.61
2019-01-26T02:32:37.663Z,999.64
2019-01-26T02:33:47.357Z,999.6
2019-01-26T02:34:56.821Z,999.51
2019-01-26T02:36:06.760Z,999.52
2019-01-26T02:37:17.294Z,999.44
2019-01-26T02:38:27.238Z,999.39
2019-01-26T02:39:36.947Z,999.37
2019-01-26T02:40:46.673Z,999.34
2019-01-26T02:41:57.610Z,999.3
2019-01-26T02:43:07.549Z,999.31
2019-01-26T02:44:16.982Z,999.27
2019-01-26T02:45:26.931Z,999.27
2019-01-26T02:46:36.615Z,999.27
2019-01-26T02:47:46.299Z,999.23
2019-01-26T02:48:56.251Z,999.22
2019-01-26T02:50:05.932Z,999.32
2019-01-26T02:51:15.613Z,999.23
2019-01-26T02:52:25.543Z,999.27
2019-01-26T02:53:35.500Z,999.26
2019-01-26T02:54:44.938Z,999.24
2019-01-26T02:55:55.033Z,999.23
2019-01-26T02:57:04.790Z,999.15
2019-01-26T02:58:14.713Z,999.18
2019-01-26T02:59:24.645Z,999.17
2019-01-26T03:00:34.576Z,999.14
2019-01-26T03:01:44.510Z,999.09
2019-01-26T03:02:54.211Z,999.09
2019-01-26T03:04:04.145Z,999.1
2019-01-26T03:05:13.834Z,999.05
2019-01-26T03:06:23.805Z,999.03
2019-01-26T03:07:33.744Z,999.01
2019-01-26T03:08:43.696Z,999.03
2019-01-26T03:09:53.377Z,999.01
2019-01-26T03:11:02.561Z,998.98
2019-01-26T03:12:12.236Z,998.93
2019-01-26T03:13:22.278Z,998.9
2019-01-26T03:14:31.980Z,998.91
2019-01-26T03:15:41.908Z,998.88
2019-01-26T03:16:51.846Z,998.74
2019-01-26T03:18:09.140Z,998.75
2019-01-26T03:19:19.080Z,998.72
2019-01-26T03:20:29.011Z,998.67
2019-01-26T03:21:38.972Z,998.63
2019-01-26T03:22:48.938Z,998.63
2019-01-26T03:23:58.887Z,998.58
2019-01-26T03:25:09.428Z,998.6
2019-01-26T03:26:19.132Z,998.54
2019-01-26T03:27:29.061Z,998.59
2019-01-26T03:28:39.000Z,998.58
2019-01-26T03:29:49.298Z,998.57
2019-01-26T03:30:59.248Z,998.56
2019-01-26T03:32:08.732Z,998.51
2019-01-26T03:33:18.491Z,998.55
2019-01-26T03:34:28.691Z,998.49
2019-01-26T03:35:38.385Z,998.5
2019-01-26T03:36:47.825Z,998.5
2019-01-26T03:37:57.027Z,998.51
2019-01-26T03:39:06.975Z,998.51
2019-01-26T03:40:16.915Z,998.54
2019-01-26T03:41:26.614Z,998.49
2019-01-26T03:42:36.787Z,998.53
2019-01-26T03:43:46.758Z,998.58
2019-01-26T03:44:56.701Z,998.56
2019-01-26T03:46:06.408Z,998.57
2019-01-26T03:47:16.342Z,998.53
2019-01-26T03:48:26.028Z,998.5
2019-01-26T03:49:36.053Z,998.39
2019-01-26T03:50:45.738Z,998.33
2019-01-26T03:51:55.697Z,998.32
2019-01-26T03:53:05.636Z,998.34
2019-01-26T03:54:15.591Z,998.35
2019-01-26T03:55:25.046Z,998.32
2019-01-26T03:56:34.981Z,998.3
2019-01-26T03:57:44.911Z,998.33
2019-01-26T03:58:54.862Z,998.35
2019-01-26T04:00:04.818Z,998.25
2019-01-26T04:01:14.538Z,998.28
2019-01-26T04:02:24.236Z,998.2
2019-01-26T04:03:34.198Z,998.17
2019-01-26T04:04:44.160Z,998.11
2019-01-26T04:05:54.104Z,998.14
2019-01-26T04:07:04.068Z,998.15
2019-01-26T04:08:14.010Z,998.1
2019-01-26T04:09:23.936Z,998.12
2019-01-26T04:10:33.624Z,998.16
2019-01-26T04:11:43.565Z,998.13
2019-01-26T04:12:53.294Z,998.15
2019-01-26T04:14:03.242Z,998.1
2019-01-26T04:15:12.677Z,998.08
2019-01-26T04:16:22.372Z,998.02
2019-01-26T04:17:32.059Z,998.03
2019-01-26T04:18:42.007Z,998.03
2019-01-26T04:19:51.950Z,998
2019-01-26T04:21:01.905Z,997.96
2019-01-26T04:22:11.890Z,997.95
2019-01-26T04:23:21.096Z,997.93
2019-01-26T04:24:31.046Z,997.96
2019-01-26T04:25:40.938Z,997.96
2019-01-26T04:26:50.889Z,997.97
2019-01-26T04:28:00.800Z,997.95
2019-01-26T04:29:11.481Z,998.03
2019-01-26T04:30:21.231Z,997.98
2019-01-26T04:31:31.176Z,998.03
2019-01-26T04:32:40.610Z,997.97
2019-01-26T04:33:50.539Z,997.97
2019-01-26T04:35:00.281Z,997.95
2019-01-26T04:36:09.967Z,997.99
2019-01-26T04:37:19.937Z,998
2019-01-26T04:38:29.639Z,997.88
2019-01-26T04:39:39.331Z,997.82
2019-01-26T04:40:49.040Z,997.86
2019-01-26T04:41:58.999Z,997.83
2019-01-26T04:43:08.959Z,997.76
2019-01-26T04:44:18.664Z,997.72
2019-01-26T04:45:28.353Z,997.74
2019-01-26T04:46:38.302Z,997.71
2019-01-26T04:47:48.444Z,997.72
2019-01-26T04:48:58.208Z,997.72
2019-01-26T04:50:08.167Z,997.71
2019-01-26T04:51:17.884Z,997.69
2019-01-26T04:52:27.834Z,997.7
2019-01-26T04:53:37.774Z,997.65
2019-01-26T04:54:47.724Z,997.66
2019-01-26T04:55:58.275Z,997.63
2019-01-26T04:57:08.296Z,997.62
2019-01-26T04:58:18.235Z,997.65
2019-01-26T04:59:28.173Z,997.61
2019-01-26T05:00:38.126Z,997.61
2019-01-26T05:01:47.831Z,997.6
2019-01-26T05:02:57.776Z,997.59
2019-01-26T05:04:07.730Z,997.6
2019-01-26T05:05:17.180Z,997.59
2019-01-26T05:06:26.869Z,997.58
2019-01-26T05:07:36.826Z,997.57
2019-01-26T05:08:46.531Z,997.59
2019-01-26T05:09:56.227Z,997.57
2019-01-26T05:11:05.922Z,997.59
2019-01-26T05:12:15.605Z,997.54
2019-01-26T05:13:25.565Z,997.54
2019-01-26T05:14:35.518Z,997.56
2019-01-26T05:15:45.473Z,997.6
2019-01-26T05:16:55.163Z,997.55
2019-01-26T05:18:05.132Z,997.53
2019-01-26T05:19:14.914Z,997.55
2019-01-26T05:20:24.608Z,997.53
2019-01-26T05:21:34.541Z,997.52
2019-01-26T05:22:44.496Z,997.5
2019-01-26T05:23:54.199Z,997.56
2019-01-26T05:25:03.890Z,997.51
2019-01-26T05:26:13.832Z,997.53
2019-01-26T05:27:23.526Z,997.54
2019-01-26T05:28:33.468Z,997.53
2019-01-26T05:29:43.410Z,997.47
2019-01-26T05:30:53.103Z,997.48
2019-01-26T05:32:03.072Z,997.46
2019-01-26T05:33:12.768Z,997.53
2019-01-26T05:34:22.228Z,997.51
2019-01-26T05:35:32.167Z,997.48
2019-01-26T05:36:42.095Z,997.44
2019-01-26T05:37:51.793Z,997.45
2019-01-26T05:39:01.790Z,997.43
2019-01-26T05:40:11.731Z,997.42
2019-01-26T05:41:21.436Z,997.41
2019-01-26T05:42:31.388Z,997.36
2019-01-26T05:43:41.319Z,997.28
2019-01-26T05:44:51.270Z,997.23
2019-01-26T05:46:01.206Z,997.27
2019-01-26T05:47:11.169Z,997.23
2019-01-26T05:48:21.107Z,997.23
2019-01-26T05:49:31.066Z,997.28
2019-01-26T05:50:41.013Z,997.2
2019-01-26T05:51:50.954Z,997.28
2019-01-26T05:53:00.149Z,997.22
2019-01-26T05:54:09.829Z,997.23
2019-01-26T05:55:19.757Z,997.21
2019-01-26T05:56:29.707Z,997.22
2019-01-26T05:57:39.636Z,997.18
2019-01-26T05:58:49.572Z,997.18
2019-01-26T06:00:00.780Z,997.13
2019-01-26T06:01:10.711Z,997.11
2019-01-26T06:02:20.696Z,997.1
2019-01-26T06:03:29.877Z,997.14
2019-01-26T06:04:39.806Z,997.19
2019-01-26T06:05:49.485Z,997.14
2019-01-26T06:06:59.425Z,997.15
2019-01-26T06:08:09.355Z,997.18
2019-01-26T06:09:19.038Z,997.2
2019-01-26T06:10:28.977Z,997.11
2019-01-26T06:11:38.919Z,997.17
2019-01-26T06:12:48.819Z,997.17
2019-01-26T06:13:59.480Z,997.17
2019-01-26T06:15:09.427Z,997.18
2019-01-26T06:16:19.370Z,997.14
2019-01-26T06:17:29.308Z,997.25
2019-01-26T06:18:39.246Z,997.16
2019-01-26T06:19:48.920Z,997.15
2019-01-26T06:20:58.855Z,997.17
2019-01-26T06:22:08.540Z,997.19
2019-01-26T06:23:18.487Z,997.22
2019-01-26T06:24:28.437Z,997.14
2019-01-26T06:25:38.394Z,997.14
2019-01-26T06:26:48.384Z,997.18
2019-01-26T06:27:58.365Z,997.17
2019-01-26T06:29:08.320Z,997.22
2019-01-26T06:30:17.751Z,997.21
2019-01-26T06:31:27.186Z,997.23
2019-01-26T06:32:37.122Z,997.23
2019-01-26T06:33:47.067Z,997.24
2019-01-26T06:34:57.022Z,997.2
2019-01-26T06:36:06.737Z,997.2
2019-01-26T06:37:16.194Z,997.16
2019-01-26T06:38:25.883Z,997.17
2019-01-26T06:39:35.829Z,997.14
2019-01-26T06:40:45.798Z,997.11
2019-01-26T06:41:55.496Z,997.11
2019-01-26T06:43:05.179Z,997.11
2019-01-26T06:44:14.867Z,997.07
2019-01-26T06:45:24.313Z,997.08
2019-01-26T06:46:34.990Z,997.06
2019-01-26T06:47:44.749Z,997.1
2019-01-26T06:48:54.894Z,997.11
2019-01-26T06:50:04.834Z,997.03
2019-01-26T06:51:14.515Z,997.01
2019-01-26T06:52:24.474Z,997.11
2019-01-26T06:53:34.164Z,996.95
2019-01-26T06:54:44.100Z,996.97
2019-01-26T06:55:54.199Z,996.96
2019-01-26T06:57:04.132Z,997.04
2019-01-26T06:58:13.857Z,996.99
2019-01-26T06:59:23.806Z,996.93
2019-01-26T07:00:33.773Z,996.85
2019-01-26T07:01:43.722Z,996.93
2019-01-26T07:02:53.407Z,996.94
2019-01-26T07:04:03.537Z,996.9
2019-01-26T07:05:13.477Z,996.88
2019-01-26T07:06:23.397Z,996.89
2019-01-26T07:07:33.331Z,996.94
2019-01-26T07:08:43.276Z,996.97
2019-01-26T07:09:52.956Z,996.97
2019-01-26T07:11:03.054Z,997.01
2019-01-26T07:12:12.495Z,996.94
2019-01-26T07:13:22.440Z,996.99
2019-01-26T07:14:31.623Z,996.99
2019-01-26T07:15:41.569Z,996.96
2019-01-26T07:16:51.524Z,997
2019-01-26T07:18:01.461Z,996.95
2019-01-26T07:19:16.925Z,997.03
2019-01-26T07:20:26.861Z,997
2019-01-26T07:21:36.792Z,996.97
2019-01-26T07:22:45.961Z,997.01
2019-01-26T07:23:55.650Z,996.99
2019-01-26T07:25:05.080Z,996.98
2019-01-26T07:26:16.195Z,997.01
2019-01-26T07:27:25.639Z,997.07
2019-01-26T07:28:35.321Z,997.07
2019-01-26T07:29:45.657Z,997.09
2019-01-26T07:30:55.578Z,997.09
2019-01-26T07:32:07.095Z,997.15
2019-01-26T07:33:17.020Z,997.08
2019-01-26T07:34:26.459Z,997.08
2019-01-26T07:35:36.401Z,997.12
2019-01-26T07:36:46.350Z,997.13
2019-01-26T07:37:56.288Z,997.19
2019-01-26T07:39:05.735Z,997.28
2019-01-26T07:40:15.675Z,997.27
2019-01-26T07:41:25.619Z,997.3
2019-01-26T07:42:35.300Z,997.25
2019-01-26T07:43:44.993Z,997.26
2019-01-26T07:44:54.943Z,997.27
2019-01-26T07:46:04.625Z,997.25
2019-01-26T07:47:13.551Z,997.28
2019-01-26T07:48:23.529Z,997.21
2019-01-26T07:49:33.209Z,997.26
2019-01-26T07:50:43.140Z,997.26
2019-01-26T07:51:53.085Z,997.24
2019-01-26T07:53:02.800Z,997.22
2019-01-26T07:54:12.495Z,997.21
2019-01-26T07:55:22.673Z,997.21
2019-01-26T07:56:32.367Z,997.23
2019-01-26T07:57:41.556Z,997.22
2019-01-26T07:58:51.490Z,997.2
2019-01-26T08:00:01.432Z,997.23
2019-01-26T08:01:11.135Z,997.21
2019-01-26T08:02:21.057Z,997.21
2019-01-26T08:03:30.998Z,997.21
2019-01-26T08:04:40.943Z,997.2
2019-01-26T08:05:50.373Z,997.2
2019-01-26T08:07:00.318Z,997.18
2019-01-26T08:08:10.246Z,997.21
2019-01-26T08:09:20.175Z,997.15
2019-01-26T08:10:29.607Z,997.18
2019-01-26T08:11:39.548Z,997.22
2019-01-26T08:12:49.880Z,997.18
2019-01-26T08:13:59.547Z,997.2
2019-01-26T08:15:09.477Z,997.23
2019-01-26T08:16:19.175Z,997.23
2019-01-26T08:17:28.866Z,997.16
2019-01-26T08:18:38.814Z,997.17
2019-01-26T08:19:48.496Z,997.14
2019-01-26T08:20:58.486Z,997.1
2019-01-26T08:22:08.424Z,997.21
2019-01-26T08:23:18.399Z,997.1
2019-01-26T08:24:27.842Z,997.06
2019-01-26T08:25:37.533Z,997.14
2019-01-26T08:26:47.487Z,997.09
2019-01-26T08:27:57.433Z,997.1
2019-01-26T08:29:07.128Z,997.08
2019-01-26T08:30:16.821Z,997.14
2019-01-26T08:31:26.767Z,997.11
2019-01-26T08:32:36.454Z,997.1
2019-01-26T08:33:46.409Z,997.09
2019-01-26T08:34:56.081Z,997.09
2019-01-26T08:36:05.771Z,997.05
2019-01-26T08:37:15.718Z,997.08
2019-01-26T08:38:25.656Z,997.06
2019-01-26T08:39:36.496Z,997.08
2019-01-26T08:40:46.175Z,997.07
2019-01-26T08:41:55.866Z,997.06
2019-01-26T08:43:05.572Z,997.06
2019-01-26T08:44:15.270Z,997.07
2019-01-26T08:45:24.955Z,997.08
2019-01-26T08:46:34.883Z,997.09
2019-01-26T08:47:44.869Z,997.09
2019-01-26T08:48:54.812Z,997.11
2019-01-26T08:50:04.751Z,997.16
2019-01-26T08:51:14.689Z,997.12
2019-01-26T08:52:24.635Z,997.16
2019-01-26T08:53:34.556Z,997.13
2019-01-26T08:54:44.478Z,997.11
2019-01-26T08:55:53.914Z,997.08
2019-01-26T08:57:03.609Z,997.06
2019-01-26T08:58:13.550Z,997.11
2019-01-26T08:59:23.240Z,997.05
2019-01-26T09:00:32.935Z,997.06
2019-01-26T09:01:42.879Z,997.15
2019-01-26T09:02:52.812Z,997.13
2019-01-26T09:04:02.494Z,997.12
2019-01-26T09:05:12.448Z,997.09
2019-01-26T09:06:22.618Z,997.07
2019-01-26T09:07:32.297Z,997.13
2019-01-26T09:08:41.998Z,997
2019-01-26T09:09:51.702Z,997.02
2019-01-26T09:11:01.628Z,997.01
2019-01-26T09:12:11.314Z,997.04
2019-01-26T09:13:21.236Z,997.06
2019-01-26T09:14:30.682Z,997.09
2019-01-26T09:15:40.360Z,997.06
2019-01-26T09:16:50.321Z,997.04
2019-01-26T09:18:00.025Z,997.05
2019-01-26T09:19:09.474Z,997.03
2019-01-26T09:20:20.600Z,997.09
2019-01-26T09:21:30.291Z,997.1
2019-01-26T09:22:39.968Z,997.12
2019-01-26T09:23:49.908Z,997.08
2019-01-26T09:24:59.858Z,997.09
2019-01-26T09:26:09.545Z,997.09
2019-01-26T09:27:19.472Z,997.14
2019-01-26T09:28:29.595Z,997.09
2019-01-26T09:29:39.564Z,997.13
2019-01-26T09:30:50.005Z,997.12
2019-01-26T09:31:59.929Z,997.1
2019-01-26T09:33:09.877Z,997.13
2019-01-26T09:34:19.578Z,997.2
2019-01-26T09:35:29.003Z,997.16
2019-01-26T09:36:38.690Z,997.22
2019-01-26T09:37:48.618Z,997.17
2019-01-26T09:38:58.309Z,997.11
2019-01-26T09:40:08.241Z,997.17
2019-01-26T09:41:17.921Z,997.15
2019-01-26T09:42:27.618Z,997.13
2019-01-26T09:43:37.769Z,997.16
2019-01-26T09:44:47.705Z,997.23
2019-01-26T09:45:57.381Z,997.2
2019-01-26T09:47:07.063Z,997.15
2019-01-26T09:48:17.013Z,997.21
2019-01-26T09:49:26.744Z,997.14
2019-01-26T09:50:36.426Z,997.2
2019-01-26T09:51:46.362Z,997.22
2019-01-26T09:52:56.310Z,997.15
2019-01-26T09:54:06.263Z,997.17
2019-01-26T09:55:16.195Z,997.14
2019-01-26T09:56:25.880Z,997.14
2019-01-26T09:57:35.814Z,997.12
2019-01-26T09:58:45.764Z,997.1
2019-01-26T09:59:55.440Z,997.15
2019-01-26T10:01:05.403Z,997.13
2019-01-26T10:02:15.104Z,997.1
2019-01-26T10:03:25.041Z,997.13
2019-01-26T10:04:34.720Z,997.08
2019-01-26T10:05:44.652Z,997.13
2019-01-26T10:06:54.606Z,997.08
2019-01-26T10:08:04.534Z,997.07
2019-01-26T10:09:14.467Z,997.07
2019-01-26T10:10:24.164Z,997.09
2019-01-26T10:11:33.844Z,997.07
2019-01-26T10:12:43.831Z,997.08
2019-01-26T10:13:53.286Z,997.09
2019-01-26T10:15:03.009Z,997.06
2019-01-26T10:16:12.957Z,997.12
2019-01-26T10:17:22.758Z,997.08
2019-01-26T10:18:32.438Z,997.06
2019-01-26T10:19:42.116Z,997.05
2019-01-26T10:20:52.074Z,997.07
2019-01-26T10:22:01.743Z,997.06
2019-01-26T10:23:11.682Z,997.09
2019-01-26T10:24:21.633Z,997.09
2019-01-26T10:25:31.563Z,997.08
2019-01-26T10:26:41.247Z,997.05
2019-01-26T10:27:51.211Z,997.09
2019-01-26T10:29:01.166Z,997.04
2019-01-26T10:30:10.859Z,997.03
2019-01-26T10:31:20.804Z,997.01
2019-01-26T10:32:30.489Z,997
2019-01-26T10:33:40.424Z,996.98
2019-01-26T10:34:50.353Z,996.98
2019-01-26T10:36:00.290Z,996.94
2019-01-26T10:37:10.249Z,996.98
2019-01-26T10:38:20.196Z,996.96
2019-01-26T10:39:30.138Z,996.93
2019-01-26T10:40:40.092Z,996.98
2019-01-26T10:41:50.044Z,996.9
2019-01-26T10:42:59.982Z,996.94
2019-01-26T10:44:09.925Z,996.9
2019-01-26T10:45:19.363Z,996.93
2019-01-26T10:46:29.040Z,996.9
2019-01-26T10:47:38.978Z,996.91
2019-01-26T10:48:48.917Z,996.85
2019-01-26T10:50:05.772Z,996.87
2019-01-26T10:51:15.701Z,996.87
2019-01-26T10:52:25.626Z,996.83
2019-01-26T10:53:35.304Z,996.82
2019-01-26T10:54:45.020Z,996.88
2019-01-26T10:55:54.717Z,996.91
2019-01-26T10:57:04.656Z,996.93
2019-01-26T10:58:14.584Z,996.9
2019-01-26T10:59:24.520Z,996.94
2019-01-26T11:00:34.275Z,996.95
2019-01-26T11:01:43.956Z,996.94
2019-01-26T11:02:53.884Z,996.95
2019-01-26T11:04:03.823Z,996.98
2019-01-26T11:05:13.253Z,996.96
2019-01-26T11:06:22.940Z,996.97
2019-01-26T11:07:32.618Z,996.94
2019-01-26T11:08:42.573Z,996.94
2019-01-26T11:09:52.270Z,996.92
2019-01-26T11:11:01.944Z,996.95
2019-01-26T11:12:11.880Z,996.91
2019-01-26T11:13:21.575Z,996.88
2019-01-26T11:14:31.536Z,996.88
2019-01-26T11:15:41.487Z,996.95
2019-01-26T11:16:51.435Z,996.96
2019-01-26T11:18:01.115Z,996.93
2019-01-26T11:19:10.824Z,996.9
2019-01-26T11:20:20.759Z,996.89
2019-01-26T11:21:30.701Z,996.91
2019-01-26T11:22:40.402Z,996.9
2019-01-26T11:23:50.337Z,996.9
2019-01-26T11:25:00.313Z,996.9
2019-01-26T11:26:10.264Z,996.88
2019-01-26T11:27:20.258Z,996.91
2019-01-26T11:28:30.200Z,996.9
2019-01-26T11:29:40.136Z,996.93
2019-01-26T11:30:50.070Z,996.84
2019-01-26T11:32:00.069Z,996.79
2019-01-26T11:33:10.011Z,996.73
2019-01-26T11:34:19.714Z,996.76
2019-01-26T11:35:29.691Z,996.76
2019-01-26T11:36:39.628Z,996.8
2019-01-26T11:37:49.573Z,996.77
2019-01-26T11:38:59.518Z,996.75
2019-01-26T11:40:09.208Z,996.71
2019-01-26T11:41:19.155Z,996.71
2019-01-26T11:42:28.608Z,996.72
2019-01-26T11:43:38.547Z,996.75
2019-01-26T11:44:48.485Z,996.71
2019-01-26T11:45:58.170Z,996.68
2019-01-26T11:47:08.176Z,996.72
2019-01-26T11:48:17.851Z,996.72
2019-01-26T11:49:27.283Z,996.71
2019-01-26T11:50:37.218Z,996.76
2019-01-26T11:51:47.155Z,996.71
2019-01-26T11:52:57.083Z,996.72
2019-01-26T11:54:06.529Z,996.77
2019-01-26T11:55:16.458Z,996.72
2019-01-26T11:56:27.173Z,996.64
2019-01-26T11:57:36.866Z,996.65
2019-01-26T11:58:46.806Z,996.65
2019-01-26T11:59:56.729Z,996.61
2019-01-26T12:01:06.678Z,996.6
2019-01-26T12:02:16.370Z,996.68
2019-01-26T12:03:32.841Z,996.59
2019-01-26T12:04:42.540Z,996.64
2019-01-26T12:05:52.256Z,996.64
2019-01-26T12:07:01.956Z,996.61
2019-01-26T12:08:11.657Z,996.56
2019-01-26T12:09:21.606Z,996.55
2019-01-26T12:10:31.046Z,996.53
2019-01-26T12:11:40.980Z,996.52
2019-01-26T12:12:50.920Z,996.53
2019-01-26T12:14:00.602Z,996.55
2019-01-26T12:15:10.309Z,996.52
2019-01-26T12:16:26.648Z,996.55
2019-01-26T12:17:36.598Z,996.58
2019-01-26T12:18:46.370Z,996.54
2019-01-26T12:19:56.317Z,996.56
2019-01-26T12:21:06.278Z,996.51
2019-01-26T12:22:15.986Z,996.5
2019-01-26T12:23:25.677Z,996.51
2019-01-26T12:24:35.371Z,996.48
2019-01-26T12:25:45.063Z,996.53
2019-01-26T12:26:55.052Z,996.49
2019-01-26T12:28:04.994Z,996.51
2019-01-26T12:29:14.945Z,996.48
2019-01-26T12:30:26.295Z,996.45
2019-01-26T12:31:36.361Z,996.5
2019-01-26T12:32:46.308Z,996.48
2019-01-26T12:33:56.263Z,996.44
2019-01-26T12:35:05.977Z,996.49
2019-01-26T12:36:15.927Z,996.45
2019-01-26T12:37:25.896Z,996.5
2019-01-26T12:38:35.810Z,996.47
2019-01-26T12:39:45.757Z,996.47
2019-01-26T12:40:55.692Z,996.45
2019-01-26T12:42:05.645Z,996.48
2019-01-26T12:43:15.591Z,996.46
2019-01-26T12:44:25.540Z,996.47
2019-01-26T12:45:35.249Z,996.44
2019-01-26T12:46:44.943Z,996.45
2019-01-26T12:47:54.880Z,996.47
2019-01-26T12:49:04.827Z,996.44
2019-01-26T12:50:14.521Z,996.46
2019-01-26T12:51:24.231Z,996.41
2019-01-26T12:52:33.925Z,996.43
2019-01-26T12:53:43.625Z,996.47
2019-01-26T12:54:53.571Z,996.47
2019-01-26T12:56:03.532Z,996.43
2019-01-26T12:57:13.476Z,996.38
2019-01-26T12:58:23.417Z,996.44
2019-01-26T12:59:33.362Z,996.45
2019-01-26T13:00:42.810Z,996.41
2019-01-26T13:01:52.493Z,996.47
2019-01-26T13:03:02.201Z,996.43
2019-01-26T13:04:12.143Z,996.41
2019-01-26T13:05:21.849Z,996.42
2019-01-26T13:06:31.554Z,996.48
2019-01-26T13:07:41.237Z,996.47
2019-01-26T13:08:50.677Z,996.41
2019-01-26T13:10:00.362Z,996.45
2019-01-26T13:11:10.298Z,996.45
2019-01-26T13:12:20.246Z,996.39
2019-01-26T13:13:30.210Z,996.39
2019-01-26T13:14:40.141Z,996.39
2019-01-26T13:15:49.572Z,996.43
2019-01-26T13:16:59.501Z,996.35
2019-01-26T13:18:09.203Z,996.35
2019-01-26T13:19:19.155Z,996.36
2019-01-26T13:20:29.091Z,996.36
2019-01-26T13:21:39.051Z,996.37
2019-01-26T13:22:48.980Z,996.39
2019-01-26T13:23:58.663Z,996.35
2019-01-26T13:25:08.625Z,996.35
2019-01-26T13:26:18.309Z,996.42
2019-01-26T13:27:28.259Z,996.38
2019-01-26T13:28:38.241Z,996.39
2019-01-26T13:29:47.934Z,996.37
2019-01-26T13:30:57.899Z,996.4
2019-01-26T13:32:07.844Z,996.4
2019-01-26T13:33:17.817Z,996.4
2019-01-26T13:34:27.850Z,996.38
2019-01-26T13:35:37.889Z,996.36
2019-01-26T13:36:47.824Z,996.3
2019-01-26T13:37:57.526Z,996.3
2019-01-26T13:39:07.203Z,996.35
2019-01-26T13:40:17.078Z,996.26
2019-01-26T13:41:26.814Z,996.28
2019-01-26T13:42:36.758Z,996.42
2019-01-26T13:43:46.722Z,996.35
2019-01-26T13:44:56.414Z,996.39
2019-01-26T13:46:06.126Z,996.4
2019-01-26T13:47:16.076Z,996.38
2019-01-26T13:48:25.515Z,996.29
2019-01-26T13:49:35.461Z,996.27
2019-01-26T13:50:51.649Z,996.3
2019-01-26T13:52:01.593Z,996.26
2019-01-26T13:53:11.528Z,996.37
2019-01-26T13:54:21.226Z,996.31
2019-01-26T13:55:31.159Z,996.29
2019-01-26T13:56:41.100Z,996.28
2019-01-26T13:57:51.098Z,996.37
2019-01-26T13:59:00.536Z,996.31
2019-01-26T14:00:10.230Z,996.35
2019-01-26T14:01:20.188Z,996.42
2019-01-26T14:02:29.634Z,996.43
2019-01-26T14:03:39.330Z,996.36
2019-01-26T14:04:49.020Z,996.43
2019-01-26T14:05:59.003Z,996.45
2019-01-26T14:07:08.943Z,996.44
2019-01-26T14:08:18.904Z,996.46
2019-01-26T14:09:28.851Z,996.46
2019-01-26T14:10:38.817Z,996.42
2019-01-26T14:11:48.762Z,996.42
2019-01-26T14:12:58.693Z,996.46
2019-01-26T14:14:08.643Z,996.44
2019-01-26T14:15:18.097Z,996.41
2019-01-26T14:16:28.035Z,996.41
2019-01-26T14:17:37.973Z,996.42
2019-01-26T14:18:47.899Z,996.41
2019-01-26T14:19:57.583Z,996.35
2019-01-26T14:21:07.547Z,996.39
2019-01-26T14:22:17.479Z,996.37
2019-01-26T14:23:26.944Z,996.34
2019-01-26T14:24:36.635Z,996.35
2019-01-26T14:25:46.587Z,996.35
2019-01-26T14:26:56.519Z,996.36
2019-01-26T14:28:06.458Z,996.37
2019-01-26T14:29:16.157Z,996.37
2019-01-26T14:30:26.100Z,996.37
2019-01-26T14:31:36.046Z,996.37